Time;durP1;ratioP1;P1;durP2;ratioP2;P2;SDS_P1;SDS_P2;PMS_P1;PMS_P2;Temp;Humidity;BMP_temperature;BMP_pressure;BME280_temperature;BME280_humidity;BME280_pressure;Samples;Min_cycle;Max_cycle;Signal;HPM_P1;HPM_P2
2023/06/10 00:01:37;;;;;;;2.63;1.90;;;19.40;90.10;19.40;100474.00;;;;4972538;28;93082;-70
2023/06/10 00:04:04;;;;;;;3.15;2.28;;;19.30;90.30;19.40;100476.00;;;;4966526;27;92879;-70
2023/06/10 00:06:35;;;;;;;2.47;1.73;;;19.30;90.60;19.40;100480.00;;;;4978259;28;92985;-70
2023/06/10 00:09:23;;;;;;;4.03;2.03;;;19.30;91.00;19.30;100480.00;;;;4978336;28;95795;-69
2023/06/10 00:11:48;;;;;;;2.45;2.22;;;19.20;91.20;19.30;100486.00;;;;4973695;28;123460;-69
2023/06/10 00:14:14;;;;;;;3.13;2.33;;;19.20;91.60;19.20;100485.00;;;;4981433;28;111279;-68
2023/06/10 00:16:40;;;;;;;2.10;1.90;;;19.10;91.90;19.20;100476.00;;;;4987484;28;93149;-69
2023/06/10 00:19:06;;;;;;;2.78;2.40;;;19.10;92.30;19.20;100485.00;;;;4981411;28;122813;-69
2023/06/10 00:21:40;;;;;;;2.45;2.25;;;19.10;92.60;19.20;100477.00;;;;4983332;28;119800;-70
2023/06/10 00:24:12;;;;;;;2.90;2.20;;;19.10;93.10;19.20;100484.00;;;;4987102;28;92832;-71
2023/06/10 00:26:41;;;;;;;3.35;2.40;;;19.10;93.20;19.10;100481.00;;;;4974449;28;93083;-71
2023/06/10 00:29:08;;;;;;;4.00;2.95;;;19.10;93.60;19.10;100481.00;;;;4948417;28;95553;-68
2023/06/10 00:31:37;;;;;;;6.80;2.60;;;19.00;93.70;19.10;100477.00;;;;4969093;28;93017;-69
2023/06/10 00:34:03;;;;;;;5.50;2.95;;;19.00;94.00;19.00;100475.00;;;;4973291;28;94130;-69
2023/06/10 00:36:30;;;;;;;6.00;3.38;;;18.90;94.20;19.00;100479.00;;;;4983350;27;109298;-69
2023/06/10 00:38:56;;;;;;;4.55;2.53;;;18.90;94.30;19.00;100479.00;;;;4986098;28;93811;-69
2023/06/10 00:41:22;;;;;;;2.78;2.50;;;18.90;94.70;19.00;100476.00;;;;4952283;28;95201;-68
2023/06/10 00:43:48;;;;;;;3.10;2.40;;;18.90;94.90;18.90;100477.00;;;;4980327;28;103116;-70
2023/06/10 00:46:15;;;;;;;3.20;2.20;;;18.80;95.10;18.90;100478.00;;;;4983022;28;92848;-70
2023/06/10 00:48:42;;;;;;;2.40;2.08;;;18.80;95.30;18.90;100486.00;;;;4967011;28;93369;-69
2023/06/10 00:51:09;;;;;;;3.78;2.38;;;18.80;95.40;18.90;100479.00;;;;4969050;28;113384;-69
2023/06/10 00:53:36;;;;;;;3.33;1.75;;;18.80;95.70;18.80;100481.00;;;;4984299;28;92777;-69
2023/06/10 00:56:03;;;;;;;2.20;2.00;;;18.70;95.80;18.80;100483.00;;;;4984679;27;92929;-70
2023/06/10 00:58:29;;;;;;;3.17;2.35;;;18.70;95.90;18.80;100482.00;;;;4981374;28;113037;-68
2023/06/10 01:00:55;;;;;;;5.75;2.92;;;18.60;95.90;18.70;100472.00;;;;4982704;28;94789;-70
2023/06/10 01:03:36;;;;;;;4.57;2.60;;;18.60;96.10;18.70;100473.00;;;;4984367;27;92939;-69
2023/06/10 01:07:10;;;;;;;2.97;2.53;;;18.50;96.20;18.60;100483.00;;;;4983364;28;93192;-69
2023/06/10 01:09:46;;;;;;;2.50;2.28;;;18.50;96.40;18.50;100479.00;;;;4984031;27;92918;-70
2023/06/10 01:12:29;;;;;;;2.63;2.20;;;18.50;96.60;18.50;100480.00;;;;4966010;28;93231;-70
2023/06/10 01:14:55;;;;;;;3.22;2.60;;;18.40;96.70;18.50;100485.00;;;;4969736;28;92896;-70
2023/06/10 01:17:21;;;;;;;1.88;1.77;;;18.60;96.80;18.40;100478.00;;;;4968463;28;108352;-70
2023/06/10 01:19:59;;;;;;;4.30;2.55;;;18.40;96.90;18.40;100483.00;;;;4968906;28;123374;-69
2023/06/10 01:22:28;;;;;;;5.03;2.63;;;18.30;97.00;18.40;100478.00;;;;4985244;28;93735;-71
2023/06/10 01:24:57;;;;;;;4.93;2.15;;;18.30;97.10;18.30;100486.00;;;;4967882;28;93921;-68
2023/06/10 01:27:33;;;;;;;4.97;3.10;;;18.30;97.50;18.30;100491.00;;;;4965595;27;93096;-69
2023/06/10 01:30:08;;;;;;;2.75;2.20;;;18.20;97.60;18.20;100486.00;;;;4972259;28;93237;-70
2023/06/10 01:32:40;;;;;;;4.55;2.53;;;18.20;97.80;18.20;100484.00;;;;4965996;28;112151;-69
2023/06/10 01:35:08;;;;;;;2.53;2.33;;;18.10;98.10;18.20;100499.00;;;;4951880;28;104288;-69
2023/06/10 01:37:34;;;;;;;3.20;2.65;;;18.10;98.20;18.20;100490.00;;;;4972938;28;93178;-69
2023/06/10 01:40:05;;;;;;;3.83;2.58;;;18.10;98.30;18.10;100496.00;;;;4981803;28;123205;-70
2023/06/10 01:42:32;;;;;;;2.83;2.50;;;18.00;98.80;18.10;100505.00;;;;4967059;27;95752;-71
2023/06/10 01:44:58;;;;;;;3.88;3.03;;;17.90;99.30;18.10;100521.00;;;;4984484;28;92890;-70
2023/06/10 01:47:24;;;;;;;5.50;3.20;;;18.00;99.90;18.00;100521.00;;;;4982702;28;100847;-69
2023/06/10 01:49:50;;;;;;;5.78;3.47;;;17.90;99.90;17.90;100532.00;;;;4982511;28;124843;-72
2023/06/10 01:52:16;;;;;;;5.10;3.50;;;17.80;99.90;17.90;100527.00;;;;4981679;27;93790;-71
2023/06/10 01:54:41;;;;;;;5.22;2.78;;;17.70;99.90;17.80;100525.00;;;;4984121;28;109452;-70
2023/06/10 01:57:07;;;;;;;2.65;2.45;;;17.70;99.90;17.70;100538.00;;;;4982445;27;108780;-70
2023/06/10 01:59:33;;;;;;;3.05;2.65;;;17.60;99.90;17.70;100535.00;;;;4985242;28;122791;-70
2023/06/10 02:01:58;;;;;;;4.95;3.28;;;17.60;99.90;17.60;100533.00;;;;4983665;27;93317;-70
2023/06/10 02:04:24;;;;;;;3.65;2.72;;;17.50;99.90;17.60;100544.00;;;;4985371;28;94206;-69
2023/06/10 02:06:50;;;;;;;2.65;2.45;;;17.50;99.90;17.50;100546.00;;;;4989866;28;92402;-69
2023/06/10 02:09:16;;;;;;;4.28;2.72;;;17.40;99.90;17.50;100535.00;;;;4989303;28;94128;-69
2023/06/10 02:11:41;;;;;;;4.32;3.28;;;17.40;99.90;17.50;100549.00;;;;4989303;28;122152;-70
2023/06/10 02:14:07;;;;;;;6.78;3.10;;;17.40;99.90;17.40;100538.00;;;;4985770;28;110902;-69
2023/06/10 02:16:33;;;;;;;3.38;2.58;;;17.40;99.90;17.40;100553.00;;;;4986245;28;108859;-70
2023/06/10 02:19:00;;;;;;;3.20;2.40;;;17.40;99.90;17.40;100549.00;;;;4987319;28;121572;-71
2023/06/10 02:21:26;;;;;;;3.00;2.78;;;17.30;99.90;17.40;100544.00;;;;4988532;27;92996;-70
2023/06/10 02:23:51;;;;;;;4.50;3.05;;;17.30;99.90;17.30;100551.00;;;;4989297;28;105974;-70
2023/06/10 02:26:17;;;;;;;2.95;2.63;;;17.30;99.90;17.30;100552.00;;;;4989578;28;108901;-71
2023/06/10 02:28:43;;;;;;;12.40;2.85;;;17.20;99.90;17.30;100560.00;;;;4974907;28;121623;-70
2023/06/10 02:31:09;;;;;;;3.53;2.47;;;17.20;99.90;17.20;100547.00;;;;4987876;28;100725;-70
2023/06/10 02:33:35;;;;;;;2.42;2.22;;;17.20;99.90;17.20;100557.00;;;;4971005;27;109255;-69
2023/06/10 02:36:00;;;;;;;6.43;3.78;;;17.10;99.90;17.10;100545.00;;;;4994273;27;110276;-70
2023/06/10 02:38:26;;;;;;;2.80;2.25;;;17.10;99.90;17.10;100552.00;;;;5004247;27;94596;-70
2023/06/10 02:40:52;;;;;;;3.60;2.45;;;17.10;99.90;17.10;100546.00;;;;5009653;27;122452;-70
2023/06/10 02:43:17;;;;;;;2.88;2.55;;;17.00;99.90;17.10;100553.00;;;;5005842;27;110294;-71
2023/06/10 02:45:43;;;;;;;3.33;2.97;;;17.00;99.90;17.00;100544.00;;;;5029024;27;108021;-70
2023/06/10 02:48:08;;;;;;;4.05;2.97;;;16.90;99.90;17.00;100549.00;;;;5001927;27;122827;-70
2023/06/10 02:50:34;;;;;;;2.58;2.38;;;16.90;99.90;17.00;100549.00;;;;5014147;27;115643;-69
2023/06/10 02:53:00;;;;;;;3.65;2.75;;;16.90;99.90;17.00;100534.00;;;;5002266;27;110160;-70
2023/06/10 02:55:26;;;;;;;2.55;2.35;;;16.90;99.90;16.90;100544.00;;;;5002724;27;110651;-69
2023/06/10 02:57:54;;;;;;;5.22;2.90;;;16.90;99.90;16.90;100546.00;;;;5004603;27;93934;-70
2023/06/10 03:00:21;;;;;;;3.70;3.17;;;16.90;99.90;16.90;100539.00;;;;4990609;27;93800;-71
2023/06/10 03:02:47;;;;;;;6.63;3.40;;;16.80;99.90;16.90;100547.00;;;;5006547;27;94084;-72
2023/06/10 03:05:13;;;;;;;3.03;2.72;;;16.80;99.90;16.90;100539.00;;;;4988929;27;107059;-71
2023/06/10 03:07:39;;;;;;;4.13;3.15;;;16.80;99.90;16.90;100542.00;;;;4972406;27;93296;-71
2023/06/10 03:10:06;;;;;;;8.77;3.78;;;16.80;99.90;16.90;100539.00;;;;5002041;27;121468;-71
2023/06/10 03:12:32;;;;;;;2.83;2.63;;;16.80;99.90;16.90;100542.00;;;;4966639;28;92876;-71
2023/06/10 03:14:58;;;;;;;4.30;3.60;;;16.90;99.90;16.90;100557.00;;;;4998368;27;109627;-71
2023/06/10 03:17:24;;;;;;;3.50;3.20;;;16.80;99.90;16.90;100553.00;;;;5006574;27;93770;-71
2023/06/10 03:19:49;;;;;;;6.55;3.67;;;16.80;99.90;16.90;100545.00;;;;5002528;27;122465;-71
2023/06/10 03:22:17;;;;;;;3.20;2.90;;;16.90;99.90;16.90;100548.00;;;;5005477;27;110033;-71
2023/06/10 03:24:43;;;;;;;4.05;3.40;;;16.90;99.90;16.90;100550.00;;;;5006275;27;92988;-72
2023/06/10 03:27:10;;;;;;;4.30;3.30;;;16.90;99.90;16.90;100553.00;;;;4976019;27;94229;-72
2023/06/10 03:29:37;;;;;;;11.10;4.35;;;16.90;99.90;16.90;100558.00;;;;4981219;27;94283;-70
2023/06/10 03:32:03;;;;;;;4.00;3.08;;;16.90;99.90;17.00;100547.00;;;;5006510;27;92983;-70
2023/06/10 03:34:32;;;;;;;5.35;2.88;;;16.90;99.90;17.00;100553.00;;;;4985930;27;92848;-70
2023/06/10 03:36:58;;;;;;;5.88;3.80;;;16.90;99.90;17.00;100559.00;;;;4996251;27;94257;-70
2023/06/10 03:39:24;;;;;;;3.15;2.92;;;16.90;99.90;17.00;100563.00;;;;5001531;27;121971;-69
2023/06/10 03:41:50;;;;;;;7.63;3.97;;;16.90;99.90;17.00;100573.00;;;;5001648;27;111235;-70
2023/06/10 03:44:16;;;;;;;4.70;3.00;;;16.90;99.90;17.00;100569.00;;;;4996552;27;92361;-69
2023/06/10 03:46:42;;;;;;;6.57;3.20;;;16.90;99.90;17.00;100569.00;;;;5006240;27;110834;-70
2023/06/10 03:49:09;;;;;;;4.03;3.00;;;16.90;99.90;17.00;100569.00;;;;4995994;27;122636;-72
2023/06/10 03:51:35;;;;;;;4.97;3.30;;;16.90;99.90;17.10;100568.00;;;;5006754;27;94001;-70
2023/06/10 03:54:01;;;;;;;4.72;3.13;;;17.00;99.90;17.10;100573.00;;;;5000352;27;93404;-69
2023/06/10 03:56:28;;;;;;;2.88;2.63;;;17.00;99.90;17.10;100571.00;;;;4980639;27;123294;-69
2023/06/10 03:58:54;;;;;;;4.57;3.25;;;17.00;99.90;17.20;100569.00;;;;4992060;27;94471;-69
2023/06/10 04:01:20;;;;;;;4.35;3.05;;;17.00;99.90;17.20;100574.00;;;;5002195;27;93126;-69
2023/06/10 04:03:48;;;;;;;3.95;3.63;;;17.10;99.90;17.30;100579.00;;;;5003321;27;93107;-69
2023/06/10 04:06:14;;;;;;;4.25;2.92;;;17.20;99.90;17.30;100582.00;;;;4996462;27;94018;-69
2023/06/10 04:08:41;;;;;;;4.78;3.58;;;17.20;99.90;17.40;100587.00;;;;4996337;27;113902;-69
2023/06/10 04:11:06;;;;;;;8.25;4.57;;;17.30;99.90;17.50;100594.00;;;;4998040;27;92831;-70
2023/06/10 04:13:32;;;;;;;4.53;3.67;;;17.40;99.90;17.60;100593.00;;;;5002494;27;108000;-70
2023/06/10 04:15:58;;;;;;;4.70;3.47;;;17.40;99.90;17.60;100589.00;;;;4992930;27;122910;-68
2023/06/10 04:18:24;;;;;;;4.82;3.42;;;17.50;99.90;17.70;100592.00;;;;5002145;27;121215;-68
2023/06/10 04:20:49;;;;;;;3.25;2.85;;;17.60;99.90;17.80;100586.00;;;;5000569;27;92907;-68
2023/06/10 04:23:15;;;;;;;6.90;3.10;;;17.60;99.90;17.80;100594.00;;;;5008855;27;109751;-69
2023/06/10 04:25:41;;;;;;;10.35;3.45;;;17.70;99.90;17.90;100588.00;;;;5005402;27;122702;-70
2023/06/10 04:28:06;;;;;;;5.22;3.15;;;17.70;99.90;18.00;100589.00;;;;5003627;27;120804;-71
2023/06/10 04:30:33;;;;;;;9.77;3.58;;;17.80;99.90;18.10;100580.00;;;;4998941;27;110365;-69
2023/06/10 04:32:58;;;;;;;4.60;3.15;;;17.90;99.90;18.10;100583.00;;;;4988558;27;92247;-68
2023/06/10 04:35:27;;;;;;;3.42;3.13;;;18.00;99.90;18.20;100590.00;;;;5004126;27;93974;-71
2023/06/10 04:37:53;;;;;;;6.82;2.75;;;18.10;99.90;18.30;100589.00;;;;4994989;27;93061;-71
2023/06/10 04:40:19;;;;;;;4.75;3.50;;;18.10;99.90;18.40;100591.00;;;;5003175;27;94001;-68
2023/06/10 04:42:45;;;;;;;3.65;3.17;;;18.20;99.90;18.50;100583.00;;;;5003083;27;107847;-69
2023/06/10 04:45:11;;;;;;;3.42;3.13;;;18.30;99.90;18.50;100591.00;;;;5004616;27;93547;-71
2023/06/10 04:47:36;;;;;;;3.72;3.42;;;18.40;99.90;18.60;100599.00;;;;5002878;27;121663;-69
2023/06/10 04:50:04;;;;;;;3.80;2.75;;;18.40;99.90;18.70;100593.00;;;;5005402;27;109908;-69
2023/06/10 04:52:29;;;;;;;4.55;3.75;;;18.50;99.90;18.80;100600.00;;;;4998168;27;93375;-69
2023/06/10 04:54:58;;;;;;;3.22;2.65;;;18.70;99.90;18.90;100600.00;;;;4987034;27;94248;-70
2023/06/10 04:57:23;;;;;;;3.30;2.55;;;18.80;99.90;19.10;100603.00;;;;5004640;27;93660;-69
2023/06/10 04:59:49;;;;;;;4.10;3.42;;;18.90;99.90;19.20;100598.00;;;;5005856;27;110965;-71
2023/06/10 05:02:15;;;;;;;3.90;3.15;;;19.00;99.90;19.30;100606.00;;;;5008024;27;92769;-70
2023/06/10 05:04:43;;;;;;;5.60;3.50;;;19.10;99.90;19.50;100601.00;;;;5005206;27;109648;-71
2023/06/10 05:07:09;;;;;;;4.68;3.30;;;19.30;99.90;19.60;100606.00;;;;4996751;27;116434;-70
2023/06/10 05:09:34;;;;;;;4.45;4.05;;;19.40;99.90;19.70;100601.00;;;;5000010;27;110991;-69
2023/06/10 05:12:00;;;;;;;4.85;3.38;;;19.50;99.90;19.90;100607.00;;;;5004102;27;102689;-69
2023/06/10 05:14:26;;;;;;;2.92;2.45;;;19.70;99.90;20.00;100607.00;;;;4998581;27;122740;-68
2023/06/10 05:16:51;;;;;;;10.60;4.32;;;19.80;99.90;20.10;100610.00;;;;5002844;27;93146;-72
2023/06/10 05:19:18;;;;;;;4.25;3.20;;;20.00;99.90;20.20;100611.00;;;;5001986;27;110620;-70
2023/06/10 05:21:45;;;;;;;7.10;4.20;;;20.00;99.90;20.40;100610.00;;;;4999428;27;92667;-70
2023/06/10 05:24:11;;;;;;;3.97;2.85;;;20.10;99.90;20.50;100614.00;;;;5001928;27;93497;-69
2023/06/10 05:26:37;;;;;;;4.35;3.50;;;20.30;99.90;20.70;100613.00;;;;5002202;27;115027;-69
2023/06/10 05:29:05;;;;;;;5.10;3.80;;;20.50;99.90;20.80;100608.00;;;;5000216;27;93921;-71
2023/06/10 05:31:31;;;;;;;5.30;3.95;;;20.60;99.90;20.90;100611.00;;;;4998866;27;93271;-68
2023/06/10 05:33:57;;;;;;;3.08;2.75;;;20.70;99.90;21.10;100614.00;;;;5002502;27;93343;-71
2023/06/10 05:36:25;;;;;;;5.47;3.00;;;20.80;99.90;21.20;100615.00;;;;5004406;27;93247;-72
2023/06/10 05:38:50;;;;;;;4.95;3.38;;;21.00;99.90;21.30;100622.00;;;;5004658;27;93939;-72
2023/06/10 05:41:16;;;;;;;5.90;3.47;;;21.10;99.90;21.40;100627.00;;;;5002825;27;107593;-71
2023/06/10 05:43:42;;;;;;;5.82;3.85;;;21.20;99.90;21.50;100623.00;;;;5004775;27;113279;-69
2023/06/10 05:46:07;;;;;;;5.70;3.92;;;21.30;99.90;21.60;100618.00;;;;5003806;27;122221;-70
2023/06/10 05:48:33;;;;;;;3.47;3.17;;;21.40;99.90;21.80;100623.00;;;;4085130;27;10000686;-70
2023/06/10 05:50:59;;;;;;;4.07;3.67;;;21.50;99.90;21.90;100622.00;;;;4988281;27;93310;-70
2023/06/10 05:53:24;;;;;;;6.65;3.97;;;21.70;99.90;22.10;100622.00;;;;4976768;27;93989;-70
2023/06/10 05:55:51;;;;;;;4.45;3.88;;;21.90;99.90;22.20;100621.00;;;;4968919;28;108736;-70
2023/06/10 05:58:16;;;;;;;5.93;3.88;;;22.00;99.90;22.30;100616.00;;;;4976148;27;93311;-67
2023/06/10 06:00:42;;;;;;;4.32;3.70;;;22.10;99.70;22.50;100624.00;;;;4982304;28;122342;-68
2023/06/10 06:03:08;;;;;;;5.05;3.55;;;22.20;99.20;22.60;100613.00;;;;4980134;27;94336;-70
2023/06/10 06:05:35;;;;;;;6.32;3.75;;;22.40;98.90;22.80;100620.00;;;;4956672;28;93177;-69
2023/06/10 06:08:02;;;;;;;4.95;3.95;;;22.50;98.60;23.00;100615.00;;;;4985498;27;94406;-69
2023/06/10 06:10:27;;;;;;;5.40;3.45;;;22.70;98.30;23.20;100620.00;;;;4975188;28;93035;-70
2023/06/10 06:12:53;;;;;;;7.82;4.72;;;22.90;97.80;23.40;100623.00;;;;4970857;28;92724;-71
2023/06/10 06:15:19;;;;;;;5.75;3.95;;;23.10;96.80;23.60;100629.00;;;;4974934;28;109373;-70
2023/06/10 06:17:44;;;;;;;4.68;4.28;;;23.30;96.20;23.70;100628.00;;;;4981102;27;94355;-69
2023/06/10 06:20:11;;;;;;;4.40;3.22;;;23.40;95.30;23.80;100619.00;;;;4970651;28;93289;-70
2023/06/10 06:22:36;;;;;;;4.97;4.05;;;23.60;95.00;24.00;100623.00;;;;4985567;27;101844;-70
2023/06/10 06:25:02;;;;;;;6.72;3.97;;;23.70;94.60;24.20;100629.00;;;;4970360;27;107765;-69
2023/06/10 06:27:28;;;;;;;5.38;3.67;;;23.90;94.10;24.40;100627.00;;;;4974357;27;93443;-70
2023/06/10 06:29:54;;;;;;;4.90;3.70;;;24.10;93.60;24.60;100637.00;;;;4970589;28;122147;-70
2023/06/10 06:32:21;;;;;;;6.22;3.83;;;24.30;92.60;24.70;100631.00;;;;4959258;28;93619;-68
2023/06/10 06:34:49;;;;;;;4.80;3.83;;;24.40;92.30;24.90;100630.00;;;;4981054;28;92236;-70
2023/06/10 06:37:15;;;;;;;3.45;3.15;;;24.60;91.90;25.00;100627.00;;;;4981406;28;94112;-70
2023/06/10 06:39:40;;;;;;;3.47;3.17;;;24.80;91.60;25.20;100637.00;;;;4982524;28;121568;-69
2023/06/10 06:42:07;;;;;;;4.28;2.92;;;25.00;91.10;25.40;100635.00;;;;4984151;27;110437;-72
2023/06/10 06:44:32;;;;;;;4.35;3.22;;;25.10;90.40;25.50;100640.00;;;;4983438;27;92769;-72
2023/06/10 06:46:58;;;;;;;3.00;2.70;;;25.30;89.30;25.60;100650.00;;;;4975882;28;100193;-69
2023/06/10 06:49:23;;;;;;;4.05;3.17;;;25.40;86.80;25.70;100646.00;;;;4984295;27;123350;-71
2023/06/10 06:51:49;;;;;;;4.30;3.35;;;25.40;86.00;25.70;100641.00;;;;4982133;28;108874;-72
2023/06/10 06:54:15;;;;;;;4.80;4.10;;;25.50;85.10;25.90;100645.00;;;;4983057;28;92833;-71
2023/06/10 06:56:40;;;;;;;6.35;3.33;;;25.60;84.60;26.00;100645.00;;;;4979686;27;105898;-69
2023/06/10 06:59:06;;;;;;;4.93;3.50;;;25.70;83.70;26.20;100647.00;;;;4984978;28;93494;-69
2023/06/10 07:01:34;;;;;;;4.43;3.47;;;25.90;83.20;26.40;100659.00;;;;4958298;28;92836;-70
2023/06/10 07:03:59;;;;;;;5.20;3.95;;;26.10;82.00;26.60;100645.00;;;;4966964;28;93149;-71
2023/06/10 07:06:25;;;;;;;3.75;3.42;;;26.10;80.70;26.80;100654.00;;;;4971110;27;95380;-71
2023/06/10 07:08:51;;;;;;;3.80;3.35;;;26.40;79.90;27.00;100655.00;;;;4983828;27;93898;-70
2023/06/10 07:11:17;;;;;;;4.50;3.65;;;26.60;79.20;27.20;100655.00;;;;4971898;28;92911;-70
2023/06/10 07:13:43;;;;;;;4.97;3.78;;;26.80;78.60;27.40;100659.00;;;;4970650;28;92997;-69
2023/06/10 07:16:09;;;;;;;3.75;3.13;;;27.00;75.40;27.40;100665.00;;;;4969978;27;122701;-71
2023/06/10 07:18:34;;;;;;;4.38;2.63;;;27.10;73.80;27.40;100666.00;;;;4970229;28;122037;-70
2023/06/10 07:21:00;;;;;;;4.68;3.65;;;27.20;74.10;27.60;100665.00;;;;4983574;27;92996;-71
2023/06/10 07:23:26;;;;;;;4.55;3.63;;;27.30;74.00;27.80;100668.00;;;;4966549;28;108511;-71
2023/06/10 07:25:51;;;;;;;4.88;3.40;;;27.50;73.50;28.00;100663.00;;;;4984439;27;123100;-70
2023/06/10 07:28:17;;;;;;;3.92;3.50;;;27.70;72.60;28.30;100681.00;;;;4975338;27;123138;-71
2023/06/10 07:30:43;;;;;;;4.50;3.70;;;27.90;71.20;28.40;100668.00;;;;4979042;27;109015;-74
2023/06/10 07:33:10;;;;;;;5.38;3.10;;;28.10;70.20;28.60;100675.00;;;;4950356;28;107994;-74
2023/06/10 07:35:35;;;;;;;3.80;3.35;;;28.30;69.90;28.90;100678.00;;;;4969944;27;93333;-73
2023/06/10 07:38:01;;;;;;;3.38;2.47;;;28.50;68.70;29.00;100681.00;;;;4984901;28;122455;-74
2023/06/10 07:40:27;;;;;;;3.53;3.22;;;28.70;67.50;29.30;100678.00;;;;4983836;27;109573;-73
2023/06/10 07:42:53;;;;;;;4.03;3.63;;;28.90;66.60;29.50;100681.00;;;;4979893;27;108352;-72
2023/06/10 07:45:18;;;;;;;5.18;3.78;;;29.10;65.70;29.70;100683.00;;;;4964131;28;93365;-74
2023/06/10 07:47:44;;;;;;;4.10;2.90;;;29.30;64.10;29.80;100681.00;;;;4983100;27;121516;-74
2023/06/10 07:50:10;;;;;;;4.55;3.58;;;29.40;62.30;29.90;100689.00;;;;4969557;28;92994;-74
2023/06/10 07:52:36;;;;;;;3.78;2.83;;;29.60;62.30;30.00;100683.00;;;;4951202;28;105607;-73
2023/06/10 07:55:02;;;;;;;10.02;4.03;;;29.70;61.20;30.20;100676.00;;;;4966145;28;95065;-74
2023/06/10 07:57:28;;;;;;;3.90;2.85;;;29.80;59.50;30.30;100685.00;;;;4963687;28;103215;-74
2023/06/10 07:59:54;;;;;;;3.83;3.30;;;30.00;58.10;30.20;100688.00;;;;4960685;28;93007;-73
2023/06/10 08:02:20;;;;;;;4.63;2.50;;;30.00;57.30;30.20;100685.00;;;;4979898;27;93248;-71
2023/06/10 08:04:46;;;;;;;3.78;2.88;;;30.00;57.20;30.20;100686.00;;;;4974828;28;123153;-77
2023/06/10 08:07:11;;;;;;;3.70;3.13;;;30.00;56.40;30.30;100692.00;;;;4970884;28;100679;-77
2023/06/10 08:09:37;;;;;;;4.50;3.08;;;30.10;56.90;30.40;100687.00;;;;4962173;28;111633;-73
2023/06/10 08:12:03;;;;;;;3.60;3.28;;;30.10;56.70;30.60;100678.00;;;;4976373;27;103646;-77
2023/06/10 08:14:29;;;;;;;3.97;3.58;;;30.30;56.30;30.70;100695.00;;;;4967936;28;94790;-77
2023/06/10 08:16:55;;;;;;;5.28;3.60;;;30.40;55.10;30.70;100688.00;;;;4974215;27;93520;-76
2023/06/10 08:19:21;;;;;;;4.28;3.58;;;30.40;54.00;30.60;100679.00;;;;4962580;28;97817;-74
2023/06/10 08:21:46;;;;;;;5.78;3.17;;;30.40;53.50;30.50;100684.00;;;;4977023;27;93035;-77
2023/06/10 08:24:12;;;;;;;3.88;3.47;;;30.30;54.00;30.60;100688.00;;;;4960261;28;123900;-76
2023/06/10 08:26:43;;;;;;;5.00;3.15;;;30.30;53.70;30.70;100688.00;;;;4949762;28;122213;-74
2023/06/10 08:29:11;;;;;;;4.05;2.95;;;30.40;52.30;30.70;100684.00;;;;4976078;28;108610;-76
2023/06/10 08:31:37;;;;;;;4.40;3.25;;;30.40;52.80;30.90;100692.00;;;;4983916;27;99731;-74
2023/06/10 08:34:04;;;;;;;4.95;3.13;;;30.50;52.80;31.00;100686.00;;;;4970210;28;121743;-73
2023/06/10 08:36:29;;;;;;;5.90;2.80;;;30.60;51.90;31.10;100694.00;;;;4971634;28;121867;-75
2023/06/10 08:38:55;;;;;;;4.50;3.22;;;30.40;51.60;31.20;100702.00;;;;4975902;27;94464;-74
2023/06/10 08:41:26;;;;;;;3.63;2.85;;;30.80;50.90;31.00;100708.00;;;;4982667;28;100508;-73
2023/06/10 08:44:37;;;;;;;3.72;2.88;;;30.80;50.00;30.90;100699.00;;;;4947539;28;95703;-73
2023/06/10 08:47:11;;;;;;;3.28;2.78;;;30.70;50.40;31.00;100699.00;;;;4960969;28;93713;-76
2023/06/10 08:49:45;;;;;;;4.47;2.65;;;30.60;50.70;31.10;100695.00;;;;4955828;28;93097;-73
2023/06/10 08:52:18;;;;;;;5.40;3.83;;;30.70;51.00;31.30;100700.00;;;;4969733;27;92882;-73
2023/06/10 08:55:01;;;;;;;4.15;3.10;;;30.90;49.90;31.40;100696.00;;;;4955280;28;94675;-76
2023/06/10 08:57:27;;;;;;;3.60;3.22;;;31.00;50.20;31.50;100695.00;;;;4942349;28;92971;-75
2023/06/10 08:59:54;;;;;;;5.85;3.22;;;31.10;49.70;31.60;100699.00;;;;4966728;28;109119;-73
2023/06/10 09:02:20;;;;;;;6.95;3.97;;;31.20;49.30;31.70;100689.00;;;;4949246;28;92462;-73
2023/06/10 09:04:50;;;;;;;4.00;3.22;;;31.30;49.10;31.80;100697.00;;;;4947241;28;114937;-75
2023/06/10 09:07:16;;;;;;;3.65;3.03;;;31.40;48.80;32.00;100689.00;;;;4963369;28;93362;-74
2023/06/10 09:09:44;;;;;;;2.35;2.15;;;31.60;47.70;32.10;100695.00;;;;4964666;28;93919;-74
2023/06/10 09:12:14;;;;;;;3.83;2.75;;;31.70;47.70;32.20;100689.00;;;;4965378;28;92902;-73
2023/06/10 09:14:41;;;;;;;5.82;3.83;;;31.80;47.50;32.40;100700.00;;;;4947658;28;93029;-75
2023/06/10 09:17:07;;;;;;;6.28;4.07;;;32.00;47.20;32.50;100700.00;;;;4960893;28;113539;-73
2023/06/10 09:19:33;;;;;;;6.63;4.35;;;32.10;47.10;32.70;100693.00;;;;4951150;28;93000;-73
2023/06/10 09:21:59;;;;;;;6.72;3.10;;;32.20;46.20;32.80;100690.00;;;;4946119;28;107063;-75
2023/06/10 09:24:25;;;;;;;3.25;2.95;;;32.40;45.90;32.90;100685.00;;;;4960050;28;122765;-74
2023/06/10 09:27:02;;;;;;;3.92;2.63;;;32.40;45.60;32.90;100687.00;;;;4962524;28;93011;-73
2023/06/10 09:29:27;;;;;;;4.93;3.03;;;32.50;44.90;32.80;100685.00;;;;4952314;28;100050;-74
2023/06/10 09:31:53;;;;;;;3.58;2.60;;;32.40;44.10;32.70;100689.00;;;;4961001;28;107372;-74
2023/06/10 09:34:19;;;;;;;3.33;2.92;;;32.40;43.30;32.60;100686.00;;;;4959082;28;99204;-74
2023/06/10 09:36:45;;;;;;;3.63;2.17;;;32.20;42.90;32.40;100680.00;;;;4963440;28;94899;-73
2023/06/10 09:39:17;;;;;;;4.13;2.47;;;32.10;43.00;32.30;100683.00;;;;4965251;28;104466;-75
2023/06/10 09:41:44;;;;;;;3.30;2.58;;;32.00;42.70;32.20;100679.00;;;;4944385;28;93043;-74
2023/06/10 09:44:21;;;;;;;3.20;2.08;;;31.90;42.40;32.20;100682.00;;;;4963207;28;95458;-73
2023/06/10 09:46:54;;;;;;;2.83;2.17;;;31.80;42.90;32.30;100681.00;;;;4951805;28;93079;-76
2023/06/10 09:49:20;;;;;;;4.78;2.28;;;31.80;42.80;32.40;100680.00;;;;4947113;28;93106;-73
2023/06/10 09:51:54;;;;;;;2.85;2.35;;;31.90;42.90;32.60;100679.00;;;;4947716;28;107653;-74
2023/06/10 09:54:23;;;;;;;3.80;2.45;;;32.10;42.60;32.70;100680.00;;;;4960861;28;94027;-76
2023/06/10 09:56:51;;;;;;;2.97;2.22;;;32.20;43.10;33.00;100681.00;;;;4946597;28;97904;-76
2023/06/10 09:59:31;;;;;;;3.30;2.30;;;32.40;43.40;33.30;100682.00;;;;4943607;28;102881;-76
2023/06/10 10:01:57;;;;;;;3.10;2.20;;;32.70;43.50;33.30;100681.00;;;;4956379;28;93199;-74
2023/06/10 10:04:26;;;;;;;3.45;2.58;;;32.80;42.80;33.20;100675.00;;;;4959478;28;93810;-73
2023/06/10 10:06:52;;;;;;;4.43;3.28;;;32.80;43.00;33.20;100681.00;;;;4962473;28;93227;-74
2023/06/10 10:09:18;;;;;;;3.25;2.92;;;32.70;42.30;33.20;100687.00;;;;4967314;28;109578;-76
2023/06/10 10:11:44;;;;;;;4.15;3.65;;;32.70;43.60;33.40;100685.00;;;;4951572;28;109817;-75
2023/06/10 10:14:11;;;;;;;3.20;2.70;;;32.80;42.90;33.50;100684.00;;;;4959024;28;94130;-74
2023/06/10 10:16:40;;;;;;;5.70;3.08;;;32.90;42.60;33.50;100685.00;;;;4949183;28;122748;-73
2023/06/10 10:19:20;;;;;;;3.85;3.38;;;33.00;42.80;33.50;100687.00;;;;4945340;28;93139;-74
2023/06/10 10:21:53;;;;;;;4.30;2.90;;;33.00;42.80;33.50;100689.00;;;;4948147;28;96505;-73
2023/06/10 10:24:23;;;;;;;3.40;3.10;;;33.00;43.00;33.40;100689.00;;;;4956568;28;94146;-74
2023/06/10 10:26:51;;;;;;;3.97;3.15;;;32.90;43.00;33.50;100695.00;;;;4964389;28;95941;-75
2023/06/10 10:29:33;;;;;;;4.50;3.65;;;32.90;43.50;33.70;100693.00;;;;4945177;28;93389;-74
2023/06/10 10:32:00;;;;;;;4.78;3.40;;;33.00;43.00;33.80;100684.00;;;;4953611;28;94168;-75
2023/06/10 10:34:43;;;;;;;3.28;2.38;;;33.20;43.70;34.00;100682.00;;;;4960160;28;124233;-73
2023/06/10 10:37:09;;;;;;;3.60;3.00;;;33.30;42.60;34.10;100685.00;;;;4977897;28;97438;-74
2023/06/10 10:39:36;;;;;;;3.15;2.25;;;33.40;42.00;34.00;100681.00;;;;4967933;28;93754;-75
2023/06/10 10:42:04;;;;;;;3.28;2.80;;;33.40;41.60;34.00;100668.00;;;;4964676;28;108747;-75
2023/06/10 10:44:31;;;;;;;4.53;3.33;;;33.30;41.90;34.00;100676.00;;;;4963682;28;93018;-73